This is the latest recevied weather packets stored in our database for station/object N0QWM. If no packets are shown the sender has not sent any weather packets the latest 10 day(s).
| Time | Temp. | Humidity | Pressure | Rain* | Wind** | Luminosity | Snow |
|---|---|---|---|---|---|---|---|
| 1788040207 | 32.78° C | 61% | 1021.8 hPa | 0 mm | - | 33 W/m² | - |
| 1788039917 | 33.89° C | 59% | 1021.9 hPa | 0 mm | - | 36 W/m² | - |
| 1788039600 | 33.89° C | 58% | 1021.9 hPa | 0 mm | - | 64 W/m² | - |
| 1788039296 | 33.89° C | 59% | 1022 hPa | 0 mm | - | 100 W/m² | - |
| 1788038990 | 33.33° C | 58% | 1021.9 hPa | 0 mm | - | 131 W/m² | - |
| 1788038686 | 33.33° C | 61% | 1022 hPa | 0 mm | - | 314 W/m² | - |
| 1788038386 | 33.33° C | 61% | 1021.9 hPa | 0 mm | - | 350 W/m² | - |
| 1788038080 | 32.78° C | 63% | 1022.1 hPa | 0 mm | - | 368 W/m² | - |
| 1788037775 | 32.22° C | 65% | 1021.8 hPa | 0 mm | - | 366 W/m² | - |
| 1788037475 | 31.67° C | 67% | 1022 hPa | 0 mm | - | 75 W/m² | - |
| 1788037170 | 31.67° C | 67% | 1022.2 hPa | 0 mm | - | 65 W/m² | - |
| 1788036870 | 31.67° C | 67% | 1022.3 hPa | 0 mm | - | 63 W/m² | - |
| 1788036566 | 32.22° C | 65% | 1022.4 hPa | 0 mm | - | 85 W/m² | - |
| 1788036266 | 32.22° C | 64% | 1022.4 hPa | 0 mm | - | 68 W/m² | - |
| 1788035956 | 32.78° C | 64% | 1022.4 hPa | 0 mm | - | 64 W/m² | - |
| 1788035656 | 32.78° C | 63% | 1022.4 hPa | 0 mm | - | 95 W/m² | - |
| 1788035351 | 32.78° C | 63% | 1022.3 hPa | 0 mm | - | 140 W/m² | - |
| 1788035047 | 32.78° C | 63% | 1022.3 hPa | 0 mm | - | 86 W/m² | - |
| 1788034743 | 33.33° C | 62% | 1022.3 hPa | 0 mm | - | 92 W/m² | - |
| 1788034439 | 33.33° C | 62% | 1022.5 hPa | 0 mm | - | 132 W/m² | - |
| 1788034135 | 33.89° C | 60% | 1022.5 hPa | 0 mm | - | 126 W/m² | - |
| 1788033833 | 33.89° C | 58% | 1022.7 hPa | 0 mm | - | 244 W/m² | - |
| 1788033527 | 34.44° C | 57% | 1022.8 hPa | 0 mm | - | 541 W/m² | - |
| 1788033222 | 33.89° C | 58% | 1023 hPa | 0 mm | - | 517 W/m² | - |
| 1788032918 | 33.33° C | 58% | 1022.8 hPa | 0 mm | - | 92 W/m² | - |
* Rain latest hour (hover to see other rain measurements)
** Current wind speed in m/s (hover to see current wind gust speed)